Time;durP1;ratioP1;P1;durP2;ratioP2;P2;SDS_P1;SDS_P2;PMS_P1;PMS_P2;Temp;Humidity;BMP_temperature;BMP_pressure;BME280_temperature;BME280_humidity;BME280_pressure;Samples;Min_cycle;Max_cycle;Signal;HPM_P1;HPM_P2
2022/11/17 00:01:56;;;;;;;4.77;2.83;;;;;;;3.89;100.00;100105.09;7390706;19;20929;-53
2022/11/17 00:04:26;;;;;;;9.00;3.10;;;;;;;3.84;100.00;100097.16;7391703;19;20929;-55
2022/11/17 00:06:56;;;;;;;4.43;2.83;;;;;;;3.85;100.00;100083.59;7378808;19;20430;-55
2022/11/17 00:09:28;;;;;;;7.40;3.53;;;;;;;3.88;100.00;100093.13;7389522;19;20494;-57
2022/11/17 00:14:40;;;;;;;9.07;3.23;;;;;;;3.86;100.00;100090.50;7391413;19;20399;-54
2022/11/17 00:17:11;;;;;;;5.63;3.37;;;;;;;3.88;100.00;100081.25;7388305;19;20438;-55
2022/11/17 00:22:24;;;;;;;6.17;3.00;;;;;;;3.86;100.00;100085.41;7388389;19;20441;-55
2022/11/17 00:24:56;;;;;;;7.03;3.77;;;;;;;3.89;100.00;100083.00;7390941;19;20463;-56
2022/11/17 00:27:26;;;;;;;9.70;3.73;;;;;;;3.85;100.00;100080.19;7387968;19;20431;-57
2022/11/17 00:29:55;;;;;;;7.53;3.80;;;;;;;3.88;100.00;100085.47;7389279;19;20460;-53
2022/11/17 00:35:08;;;;;;;5.33;3.23;;;;;;;3.88;100.00;100082.91;7389319;19;20383;-54
2022/11/17 00:38:14;;;;;;;7.33;4.50;;;;;;;3.82;100.00;100068.13;7382522;19;20442;-53
2022/11/17 00:40:31;;;;;;;6.33;3.80;;;;;;;3.81;100.00;100075.69;7388411;19;20527;-57
2022/11/17 00:43:02;;;;;;;10.43;5.40;;;;;;;3.78;100.00;100067.06;7390612;19;20403;-56
2022/11/17 00:45:32;;;;;;;7.20;4.07;;;;;;;3.73;100.00;100058.25;7388590;19;20757;-55
2022/11/17 00:48:02;;;;;;;6.77;3.40;;;;;;;3.74;100.00;100059.16;7389536;19;20411;-55
2022/11/17 00:50:32;;;;;;;6.63;3.50;;;;;;;3.72;100.00;100051.41;7387739;19;20390;-54
2022/11/17 00:53:01;;;;;;;7.87;4.07;;;;;;;3.72;100.00;100045.41;7397658;19;20405;-53
2022/11/17 00:55:33;;;;;;;7.37;3.73;;;;;;;3.71;100.00;100047.09;7395299;19;20396;-51
2022/11/17 00:58:03;;;;;;;7.47;3.90;;;;;;;3.68;100.00;100043.50;7394524;19;20430;-57
2022/11/17 01:00:32;;;;;;;8.43;4.03;;;;;;;3.72;100.00;100040.31;7394568;19;20395;-53
2022/11/17 01:03:02;;;;;;;10.97;5.10;;;;;;;3.75;100.00;100033.72;7397208;19;20750;-57
2022/11/17 01:05:32;;;;;;;11.60;5.83;;;;;;;3.84;100.00;100024.84;7394483;19;20391;-56
2022/11/17 01:08:01;;;;;;;18.83;8.70;;;;;;;3.78;100.00;100026.25;7396011;19;20394;-56
2022/11/17 01:10:35;;;;;;;13.93;7.80;;;;;;;3.74;100.00;100024.28;7393900;19;20926;-53
2022/11/17 01:13:05;;;;;;;13.20;5.20;;;;;;;3.81;100.00;100025.53;7397273;19;20393;-52
2022/11/17 01:15:35;;;;;;;8.13;4.73;;;;;;;3.78;100.00;100025.34;7394257;19;20721;-54
2022/11/17 01:18:04;;;;;;;6.97;4.53;;;;;;;3.65;100.00;100017.00;7396374;19;20422;-52
2022/11/17 01:20:34;;;;;;;8.57;4.80;;;;;;;3.63;100.00;100021.13;7394305;19;20418;-53
2022/11/17 01:23:04;;;;;;;6.33;3.90;;;;;;;3.57;100.00;100019.88;7396872;19;20387;-52
2022/11/17 01:25:37;;;;;;;8.33;4.43;;;;;;;3.56;100.00;100006.28;7392610;19;20402;-53
2022/11/17 01:28:06;;;;;;;5.73;3.70;;;;;;;3.56;100.00;100016.47;7395248;19;20430;-55
2022/11/17 01:30:36;;;;;;;9.50;4.57;;;;;;;3.56;100.00;100006.28;7393897;19;21116;-54
2022/11/17 01:33:06;;;;;;;7.30;4.37;;;;;;;3.56;100.00;100003.72;7396482;19;20418;-50
2022/11/17 01:35:36;;;;;;;5.10;3.40;;;;;;;3.54;100.00;99989.09;7394119;19;20418;-52
2022/11/17 01:38:05;;;;;;;7.83;4.40;;;;;;;3.54;100.00;99991.66;7395267;19;20410;-50
2022/11/17 01:40:38;;;;;;;9.43;5.00;;;;;;;3.51;100.00;99989.81;7394655;19;20388;-53
2022/11/17 01:43:10;;;;;;;7.27;3.93;;;;;;;3.52;100.00;99986.47;7396919;19;20418;-55
2022/11/17 01:45:40;;;;;;;9.47;4.30;;;;;;;3.43;100.00;99980.84;7393702;19;20454;-54
2022/11/17 01:48:09;;;;;;;7.97;4.90;;;;;;;3.41;100.00;99967.09;7399774;19;20412;-54
2022/11/17 01:50:41;;;;;;;7.47;4.47;;;;;;;3.38;100.00;99972.91;7393593;19;21083;-58
2022/11/17 01:53:13;;;;;;;7.87;5.30;;;;;;;3.32;100.00;99968.34;7397128;19;20399;-51
2022/11/17 01:55:47;;;;;;;10.00;4.97;;;;;;;3.29;100.00;99955.44;7393093;19;20433;-52
2022/11/17 01:58:19;;;;;;;7.17;4.47;;;;;;;3.30;100.00;99953.75;7393378;19;20790;-58
2022/11/17 02:00:49;;;;;;;7.40;4.90;;;;;;;3.30;100.00;99949.53;7393371;19;20407;-52
2022/11/17 02:03:18;;;;;;;9.77;5.40;;;;;;;3.28;100.00;99945.13;7395234;19;20396;-53
2022/11/17 02:05:52;;;;;;;10.30;5.63;;;;;;;3.24;100.00;99944.06;7390467;19;20399;-53
2022/11/17 02:08:22;;;;;;;10.17;5.40;;;;;;;3.27;100.00;99949.34;7393646;19;20421;-54
2022/11/17 02:10:55;;;;;;;10.53;5.30;;;;;;;3.29;100.00;99952.88;7391531;19;20437;-55
2022/11/17 02:13:25;;;;;;;10.80;5.40;;;;;;;3.26;100.00;99937.38;7395061;19;20371;-52
2022/11/17 02:15:54;;;;;;;9.50;5.20;;;;;;;3.26;100.00;99939.03;7392963;19;20382;-55
2022/11/17 02:18:24;;;;;;;11.50;5.60;;;;;;;3.25;100.00;99930.53;7395461;19;20976;-52
2022/11/17 02:21:03;;;;;;;7.67;4.97;;;;;;;3.20;100.00;99939.56;7384107;19;20433;-54
2022/11/17 02:23:53;;;;;;;25.50;7.10;;;;;;;3.21;100.00;99929.47;7398293;19;20391;-51
2022/11/17 02:26:49;;;;;;;8.40;5.20;;;;;;;3.21;100.00;99929.47;7392212;19;20434;-55
2022/11/17 02:29:26;;;;;;;9.93;5.83;;;;;;;3.19;100.00;99928.47;7390612;19;20423;-51
2022/11/17 02:32:03;;;;;;;8.30;5.40;;;;;;;3.19;100.00;99925.06;7393577;19;20411;-55
2022/11/17 02:34:37;;;;;;;8.27;5.03;;;;;;;3.19;100.00;99925.94;7394239;19;20379;-51
2022/11/17 02:37:11;;;;;;;8.90;5.00;;;;;;;3.15;100.00;99928.22;7388635;19;20423;-54
2022/11/17 02:39:45;;;;;;;10.13;5.10;;;;;;;3.09;100.00;99924.50;7391801;19;20948;-52
2022/11/17 02:42:18;;;;;;;7.70;5.30;;;;;;;3.06;100.00;99921.81;7391376;19;20419;-53
2022/11/17 02:44:54;;;;;;;8.77;5.60;;;;;;;3.06;100.00;99928.56;7392641;19;20387;-56
2022/11/17 02:47:25;;;;;;;8.40;5.00;;;;;;;3.10;100.00;99915.22;7390810;19;20983;-55
2022/11/17 02:49:56;;;;;;;9.80;5.37;;;;;;;3.05;100.00;99914.06;7390192;19;20423;-53
2022/11/17 02:52:27;;;;;;;8.47;5.13;;;;;;;3.05;100.00;99914.94;7390191;19;20433;-52
2022/11/17 02:55:01;;;;;;;8.93;6.00;;;;;;;2.99;100.00;99906.94;7392077;19;21054;-55
2022/11/17 02:57:31;;;;;;;9.90;5.97;;;;;;;2.97;100.00;99903.41;7388671;19;20950;-56
2022/11/17 03:00:05;;;;;;;7.83;5.67;;;;;;;2.99;100.00;99909.50;7391217;19;20406;-55
2022/11/17 03:02:45;;;;;;;10.93;6.00;;;;;;;2.99;100.00;99898.41;7390902;19;20427;-54
2022/11/17 03:05:17;;;;;;;9.80;6.00;;;;;;;2.98;100.00;99905.19;7392856;19;20392;-54
2022/11/17 03:08:00;;;;;;;9.00;6.10;;;;;;;2.99;100.00;99908.59;7391018;19;20435;-52
2022/11/17 03:10:36;;;;;;;9.70;6.33;;;;;;;2.96;100.00;99905.09;7389634;19;20382;-52
2022/11/17 03:13:11;;;;;;;9.63;6.20;;;;;;;2.88;100.00;99898.69;7390967;19;20418;-50
2022/11/17 03:15:49;;;;;;;8.90;5.47;;;;;;;2.90;100.00;99876.69;7389611;19;20414;-54
2022/11/17 03:18:22;;;;;;;10.20;5.90;;;;;;;2.89;100.00;99889.34;7391592;19;20426;-55
2022/11/17 03:21:00;;;;;;;11.00;6.50;;;;;;;2.93;100.00;99894.72;7390376;19;20414;-53
2022/11/17 03:23:33;;;;;;;8.97;5.77;;;;;;;2.92;100.00;99884.44;7392783;19;20370;-55
2022/11/17 03:26:04;;;;;;;10.33;5.47;;;;;;;2.88;100.00;99877.41;7390074;19;20781;-56
2022/11/17 03:28:34;;;;;;;9.07;5.20;;;;;;;2.82;100.00;99881.34;7391226;19;20412;-57
2022/11/17 03:31:08;;;;;;;10.63;5.83;;;;;;;2.85;100.00;99870.44;7390659;19;20411;-51
2022/11/17 03:33:39;;;;;;;8.93;6.07;;;;;;;2.84;100.00;99867.00;7392321;19;20728;-53
2022/11/17 03:36:12;;;;;;;9.00;6.03;;;;;;;2.86;100.00;99877.31;7387556;19;20411;-53
2022/11/17 03:38:45;;;;;;;10.60;5.60;;;;;;;2.87;100.00;99870.56;7390499;19;20956;-57
2022/11/17 03:41:15;;;;;;;11.40;4.17;;;;;;;2.79;100.00;99876.09;7391118;19;20434;-52
2022/11/17 03:43:48;;;;;;;24.80;13.90;;;;;;;3.23;100.00;99866.69;7392241;19;20380;-55
2022/11/17 03:46:21;;;;;;;12.90;7.10;;;;;;;3.52;100.00;99853.81;7389463;19;20442;-52
2022/11/17 03:48:55;;;;;;;13.27;6.83;;;;;;;3.65;100.00;99850.28;7393144;19;20434;-54
2022/11/17 03:51:26;;;;;;;14.40;8.13;;;;;;;3.88;100.00;99861.75;7389766;19;20453;-56
2022/11/17 03:53:56;;;;;;;8.20;6.10;;;;;;;3.41;100.00;99865.09;7391928;19;20391;-51
2022/11/17 03:56:32;;;;;;;9.57;5.97;;;;;;;3.08;100.00;99861.59;7389265;19;20415;-56
2022/11/17 03:59:05;;;;;;;11.77;6.13;;;;;;;3.01;100.00;99873.88;7390118;19;20423;-52
2022/11/17 04:01:38;;;;;;;11.50;6.43;;;;;;;3.10;100.00;99860.03;7389116;19;20423;-51
2022/11/17 04:04:08;;;;;;;9.73;5.73;;;;;;;3.02;100.00;99861.22;7391965;19;20410;-54
2022/11/17 04:06:37;;;;;;;12.33;6.07;;;;;;;2.94;100.00;99847.19;7389088;19;20419;-55
2022/11/17 04:09:06;;;;;;;10.40;5.43;;;;;;;3.01;100.00;99841.63;7389380;19;20419;-54
2022/11/17 04:17:02;;;;;;;10.43;6.47;;;;;;;2.96;100.00;99828.63;7389741;19;20947;-50
2022/11/17 04:19:32;;;;;;;10.63;6.10;;;;;;;2.95;100.00;99828.53;7389284;19;20461;-51
2022/11/17 04:22:01;;;;;;;10.03;6.00;;;;;;;2.90;100.00;99824.84;7388755;19;20966;-58
2022/11/17 04:24:31;;;;;;;8.43;5.80;;;;;;;2.82;100.00;99829.53;7392479;19;20823;-56
2022/11/17 04:29:42;;;;;;;9.47;5.60;;;;;;;2.72;100.00;99809.38;7395756;19;20438;-54
2022/11/17 04:32:15;;;;;;;9.53;5.70;;;;;;;2.72;100.00;99817.03;7395710;19;20440;-52
2022/11/17 04:34:44;;;;;;;9.60;6.10;;;;;;;2.68;100.00;99823.63;7398361;19;20371;-52
2022/11/17 04:37:16;;;;;;;12.17;6.40;;;;;;;2.68;100.00;99813.41;7396132;19;20420;-54
2022/11/17 04:39:46;;;;;;;8.83;5.90;;;;;;;2.61;100.00;99813.84;7394928;19;20442;-54
2022/11/17 04:42:13;;;;;;;8.93;5.80;;;;;;;2.62;100.00;99807.97;7395263;19;20415;-50
2022/11/17 04:44:42;;;;;;;9.13;5.97;;;;;;;2.59;100.00;99808.66;7398148;19;20924;-57
2022/11/17 04:47:14;;;;;;;9.70;5.80;;;;;;;2.62;100.00;99808.84;7396361;19;20809;-51
2022/11/17 04:49:44;;;;;;;10.80;6.30;;;;;;;2.66;100.00;99799.72;7394880;19;20424;-55
2022/11/17 04:52:13;;;;;;;10.93;6.30;;;;;;;2.66;100.00;99802.28;7395078;19;20403;-51
2022/11/17 04:54:42;;;;;;;13.97;6.47;;;;;;;2.68;100.00;99799.00;7401608;19;20378;-54
2022/11/17 04:57:12;;;;;;;12.63;6.47;;;;;;;2.60;100.00;99795.13;7395354;19;21203;-54
2022/11/17 04:59:41;;;;;;;8.57;5.53;;;;;;;2.60;100.00;99801.91;7394719;19;20759;-55
2022/11/17 05:02:13;;;;;;;9.10;5.77;;;;;;;2.58;100.00;99793.28;7394680;19;20674;-54
2022/11/17 05:04:58;;;;;;;11.20;6.20;;;;;;;2.54;100.00;99790.56;7397502;19;20393;-57
2022/11/17 05:07:27;;;;;;;11.17;6.77;;;;;;;2.56;100.00;99783.91;7394474;19;20406;-56
2022/11/17 05:09:57;;;;;;;12.13;5.87;;;;;;;2.61;100.00;99799.44;7394499;19;20414;-54
2022/11/17 05:15:09;;;;;;;11.17;6.73;;;;;;;2.58;100.00;99780.56;7397413;19;20414;-51
2022/11/17 05:17:38;;;;;;;14.23;7.00;;;;;;;2.58;100.00;99780.56;7394610;19;20415;-51
2022/11/17 05:20:09;;;;;;;9.10;6.37;;;;;;;2.53;100.00;99777.75;7394972;19;20948;-54
2022/11/17 05:25:20;;;;;;;10.60;6.73;;;;;;;2.48;100.00;99780.03;7394855;19;20384;-52
2022/11/17 05:27:50;;;;;;;11.20;7.23;;;;;;;2.47;100.00;99777.38;7395907;19;20383;-52
2022/11/17 05:30:19;;;;;;;10.50;6.70;;;;;;;2.45;100.00;99784.94;7394416;19;20392;-52
2022/11/17 05:32:51;;;;;;;12.30;6.70;;;;;;;2.45;100.00;99787.47;7396200;19;20730;-51
2022/11/17 05:35:21;;;;;;;9.77;6.10;;;;;;;2.47;100.00;99777.38;7394542;19;20383;-52
2022/11/17 05:37:50;;;;;;;9.90;6.43;;;;;;;2.47;100.00;99790.13;7393990;19;20410;-53
2022/11/17 05:40:20;;;;;;;13.30;7.10;;;;;;;2.44;100.00;99788.25;7392252;19;20388;-56
2022/11/17 05:42:49;;;;;;;13.37;6.90;;;;;;;2.42;100.00;99780.53;7397012;19;20395;-54
2022/11/17 05:45:25;;;;;;;14.23;7.30;;;;;;;2.42;100.00;99785.63;7392725;19;20459;-52
2022/11/17 05:47:57;;;;;;;15.07;7.43;;;;;;;2.40;100.00;99779.56;7395670;19;20758;-55
2022/11/17 05:50:26;;;;;;;11.10;6.90;;;;;;;2.43;100.00;99771.25;7394955;19;20388;-54
2022/11/17 05:52:56;;;;;;;13.67;7.03;;;;;;;2.46;100.00;99776.50;7395418;19;20928;-55
2022/11/17 05:55:26;;;;;;;15.63;9.13;;;;;;;2.46;100.00;99776.50;7393994;19;20371;-54
2022/11/17 05:57:56;;;;;;;11.20;7.47;;;;;;;2.46;100.00;99766.31;7394686;19;20387;-56
2022/11/17 06:00:25;;;;;;;9.97;6.30;;;;;;;2.43;100.00;99774.66;7395843;19;20403;-52
2022/11/17 06:03:00;;;;;;;11.53;7.10;;;;;;;2.41;100.00;99771.13;7395750;19;20422;-54
2022/11/17 06:05:30;;;;;;;11.50;7.00;;;;;;;2.46;100.00;99765.44;7393812;19;20403;-53
2022/11/17 06:07:59;;;;;;;12.03;6.70;;;;;;;2.40;100.00;99765.94;7394327;19;20410;-53
2022/11/17 06:10:29;;;;;;;13.23;7.50;;;;;;;2.38;100.00;99762.44;7390597;19;20422;-55
2022/11/17 06:12:59;;;;;;;15.83;7.50;;;;;;;2.38;100.00;99765.00;7395387;19;20392;-54
2022/11/17 06:15:28;;;;;;;13.27;7.50;;;;;;;2.37;100.00;99766.66;7394509;19;20395;-50
2022/11/17 06:18:02;;;;;;;12.70;8.07;;;;;;;2.42;100.00;99749.13;7394461;19;20968;-56
2022/11/17 06:20:35;;;;;;;11.60;7.40;;;;;;;2.41;100.00;99753.31;7393516;19;20371;-54
2022/11/17 06:23:06;;;;;;;13.30;8.10;;;;;;;2.42;100.00;99749.97;7394974;19;20410;-50
2022/11/17 06:25:37;;;;;;;13.73;8.17;;;;;;;2.40;100.00;99748.13;7380411;19;20388;-51
2022/11/17 06:28:10;;;;;;;13.70;7.70;;;;;;;2.39;100.00;99759.09;7394505;19;20384;-52
2022/11/17 06:30:40;;;;;;;12.87;7.40;;;;;;;2.37;100.00;99761.56;7392177;19;20430;-53
2022/11/17 06:33:15;;;;;;;13.37;7.67;;;;;;;2.42;100.00;99746.56;7394918;19;20391;-56
2022/11/17 06:35:45;;;;;;;20.47;9.13;;;;;;;2.35;100.00;99737.69;7392438;19;20780;-56
2022/11/17 06:38:15;;;;;;;12.10;7.63;;;;;;;2.36;100.00;99746.22;7393328;19;20427;-49
2022/11/17 06:40:44;;;;;;;15.97;8.63;;;;;;;2.35;100.00;99736.81;7390683;19;20426;-51
2022/11/17 06:43:14;;;;;;;13.70;8.07;;;;;;;2.35;100.00;99741.91;7394613;19;20394;-53
2022/11/17 06:45:45;;;;;;;15.03;8.83;;;;;;;2.34;100.00;99735.03;7392102;19;20407;-57
2022/11/17 06:48:24;;;;;;;14.70;8.57;;;;;;;2.32;100.00;99744.25;7391286;19;20418;-54
2022/11/17 06:50:53;;;;;;;13.30;8.50;;;;;;;2.28;100.00;99733.91;7391651;19;20428;-49
2022/11/17 06:53:25;;;;;;;12.60;7.97;;;;;;;2.27;100.00;99734.69;7396599;19;20411;-56
2022/11/17 06:56:01;;;;;;;15.40;8.50;;;;;;;2.29;100.00;99738.22;7392013;19;20418;-50
2022/11/17 06:58:32;;;;;;;12.80;8.10;;;;;;;2.28;100.00;99730.47;7393067;19;20423;-59
2022/11/17 07:01:09;;;;;;;12.93;8.40;;;;;;;2.29;100.00;99738.22;7391147;19;20432;-55
2022/11/17 07:03:42;;;;;;;12.97;7.90;;;;;;;2.33;100.00;99739.28;7393831;19;20741;-57
2022/11/17 07:06:12;;;;;;;13.00;7.90;;;;;;;2.34;100.00;99742.66;7391272;19;20483;-51
2022/11/17 07:08:41;;;;;;;11.90;7.70;;;;;;;2.29;100.00;99740.75;7391264;19;20427;-57
2022/11/17 07:11:13;;;;;;;12.70;8.10;;;;;;;2.31;100.00;99752.69;7390712;19;20490;-56
2022/11/17 07:13:43;;;;;;;8.63;5.43;;;;;;;2.27;100.00;99749.94;7393049;19;20422;-54
2022/11/17 07:16:14;;;;;;;13.23;8.60;;;;;;;2.25;100.00;99741.34;7391235;19;20411;-54
2022/11/17 07:18:54;;;;;;;11.33;6.43;;;;;;;2.24;100.00;99739.59;7391843;19;20973;-51
2022/11/17 07:21:23;;;;;;;11.87;7.80;;;;;;;2.27;100.00;99749.94;7390230;19;20415;-51
2022/11/17 07:23:53;;;;;;;12.57;7.70;;;;;;;2.28;100.00;99744.09;7393246;19;20397;-51
2022/11/17 07:26:22;;;;;;;13.50;8.17;;;;;;;2.24;100.00;99749.78;7389906;19;20470;-53
2022/11/17 07:28:52;;;;;;;32.20;9.90;;;;;;;2.22;100.00;99747.94;7391293;19;20423;-55
2022/11/17 07:31:22;;;;;;;12.47;8.00;;;;;;;2.23;100.00;99742.94;7389873;19;20430;-57
2022/11/17 07:33:54;;;;;;;14.20;7.90;;;;;;;2.29;100.00;99743.31;7394245;19;20406;-58
2022/11/17 07:36:24;;;;;;;11.80;7.50;;;;;;;2.31;100.00;99737.41;7389762;19;20407;-58
2022/11/17 07:38:53;;;;;;;13.10;7.43;;;;;;;2.31;100.00;99730.69;7391012;19;20446;-57
2022/11/17 07:41:23;;;;;;;12.60;7.67;;;;;;;2.31;100.00;99739.97;7391300;19;20802;-58
2022/11/17 07:43:52;;;;;;;11.00;6.70;;;;;;;2.32;100.00;99744.25;7392561;19;20399;-57
2022/11/17 07:46:22;;;;;;;13.00;7.63;;;;;;;2.29;100.00;99738.22;7390040;19;20409;-57
2022/11/17 07:48:54;;;;;;;12.87;7.53;;;;;;;2.33;100.00;99738.38;7390682;19;21015;-57
2022/11/17 07:51:25;;;;;;;12.70;7.30;;;;;;;2.32;100.00;99746.81;7389781;19;20415;-55
2022/11/17 07:53:54;;;;;;;14.80;8.00;;;;;;;2.32;100.00;99732.44;7392010;19;20396;-56
2022/11/17 07:56:24;;;;;;;23.93;12.63;;;;;;;2.80;100.00;99726.63;7389445;19;20932;-57
2022/11/17 07:58:55;;;;;;;16.03;9.17;;;;;;;3.06;100.00;99733.19;7390978;19;20430;-59
2022/11/17 08:01:26;;;;;;;12.57;7.30;;;;;;;3.19;100.00;99731.31;7389322;19;20418;-57
2022/11/17 08:03:58;;;;;;;24.37;13.30;;;;;;;3.36;100.00;99739.88;7392137;19;20392;-58
2022/11/17 08:06:28;;;;;;;19.93;12.43;;;;;;;3.59;100.00;99738.56;7388856;19;20415;-58
2022/11/17 08:08:57;;;;;;;13.83;8.13;;;;;;;3.30;100.00;99725.13;7389878;19;20423;-58
2022/11/17 08:11:30;;;;;;;12.37;7.30;;;;;;;2.88;100.00;99742.34;7387952;19;20506;-56
2022/11/17 08:13:59;;;;;;;11.87;6.60;;;;;;;2.72;100.00;99743.16;7391909;19;20824;-58
2022/11/17 08:16:29;;;;;;;13.27;8.20;;;;;;;2.73;100.00;99737.25;7388546;19;20419;-57
2022/11/17 08:19:03;;;;;;;13.47;8.30;;;;;;;2.61;100.00;99740.84;7389751;19;20419;-55
2022/11/17 08:21:32;;;;;;;16.73;8.60;;;;;;;2.59;100.00;99744.09;7388891;19;20991;-56
2022/11/17 08:24:01;;;;;;;13.00;7.60;;;;;;;2.53;100.00;99740.44;7391611;19;20462;-56
2022/11/17 08:26:31;;;;;;;16.50;7.50;;;;;;;2.46;100.00;99732.34;7389535;19;20482;-53
2022/11/17 08:29:00;;;;;;;13.47;7.07;;;;;;;2.33;100.00;99738.38;7389849;19;20423;-57
2022/11/17 08:31:30;;;;;;;12.33;7.40;;;;;;;2.40;100.00;99737.94;7388191;19;20438;-55
2022/11/17 08:34:02;;;;;;;12.47;7.77;;;;;;;2.45;100.00;99738.22;7391116;19;20383;-58
2022/11/17 08:36:31;;;;;;;18.17;8.23;;;;;;;2.46;100.00;99728.09;7386811;19;20411;-53
2022/11/17 08:39:01;;;;;;;12.57;7.20;;;;;;;2.41;100.00;99732.94;7389529;19;20423;-54
2022/11/17 08:41:30;;;;;;;11.47;7.30;;;;;;;2.43;100.00;99722.84;7385853;19;21036;-52
2022/11/17 08:44:00;;;;;;;11.80;7.30;;;;;;;2.42;100.00;99728.75;7391035;19;20383;-57
2022/11/17 08:46:29;;;;;;;15.80;7.67;;;;;;;2.35;100.00;99709.69;7388560;19;20414;-55
2022/11/17 08:49:02;;;;;;;11.53;7.10;;;;;;;2.37;100.00;99719.97;7388901;19;20430;-53
2022/11/17 08:51:32;;;;;;;14.90;8.53;;;;;;;2.34;100.00;99714.66;7389290;19;20449;-57
2022/11/17 08:54:01;;;;;;;13.50;7.70;;;;;;;2.38;100.00;99719.16;7390758;19;20388;-57
2022/11/17 08:56:31;;;;;;;13.93;6.77;;;;;;;2.37;100.00;99719.97;7385430;19;20789;-55
2022/11/17 08:59:00;;;;;;;14.40;8.30;;;;;;;2.39;100.00;99711.63;7388841;19;20430;-55
2022/11/17 09:01:30;;;;;;;13.50;7.87;;;;;;;2.35;100.00;99717.31;7386381;19;20490;-56
2022/11/17 09:04:04;;;;;;;13.70;8.07;;;;;;;2.37;100.00;99712.31;7390205;19;20750;-58
2022/11/17 09:06:33;;;;;;;12.70;7.70;;;;;;;2.38;100.00;99703.88;7388169;19;20412;-55
2022/11/17 09:09:03;;;;;;;13.20;7.60;;;;;;;2.38;100.00;99704.78;7388041;19;20415;-55
2022/11/17 09:11:33;;;;;;;15.53;8.20;;;;;;;2.42;100.00;99708.38;7388858;19;20411;-56
2022/11/17 09:14:02;;;;;;;12.13;7.47;;;;;;;2.40;100.00;99695.53;7397343;19;20759;-52
2022/11/17 09:16:32;;;;;;;14.80;7.80;;;;;;;2.42;100.00;99698.19;7394156;19;20439;-53
2022/11/17 09:19:04;;;;;;;14.10;7.70;;;;;;;2.45;100.00;99680.53;7392462;19;20782;-56
2022/11/17 09:21:34;;;;;;;13.80;7.60;;;;;;;2.43;100.00;99694.84;7398011;19;20434;-54
2022/11/17 09:24:03;;;;;;;16.73;8.47;;;;;;;2.48;100.00;99687.47;7400387;19;20746;-53
2022/11/17 09:26:34;;;;;;;12.83;8.00;;;;;;;2.48;100.00;99692.56;7396646;19;20446;-56
2022/11/17 09:29:04;;;;;;;15.80;8.07;;;;;;;2.49;100.00;99695.19;7399644;19;20419;-53
2022/11/17 09:31:33;;;;;;;10.80;6.20;;;;;;;2.52;100.00;99690.25;7397412;19;20450;-54
2022/11/17 09:34:06;;;;;;;15.17;8.20;;;;;;;2.54;100.00;99688.72;7396616;19;20917;-53
2022/11/17 09:36:36;;;;;;;15.70;8.60;;;;;;;2.64;100.00;99679.91;7393273;19;20418;-53
2022/11/17 09:39:06;;;;;;;11.10;7.40;;;;;;;2.66;100.00;99680.00;7394770;19;20967;-53
2022/11/17 09:41:39;;;;;;;15.47;8.20;;;;;;;2.62;100.00;99676.38;7393052;19;20435;-52
2022/11/17 09:44:17;;;;;;;16.33;8.70;;;;;;;2.66;100.00;99685.09;7396390;19;20464;-55
2022/11/17 09:46:58;;;;;;;12.93;7.30;;;;;;;2.79;100.00;99679.91;7394157;19;20418;-54
2022/11/17 09:49:36;;;;;;;12.73;7.67;;;;;;;2.81;100.00;99677.41;7393941;19;20438;-51
2022/11/17 09:52:11;;;;;;;14.00;7.90;;;;;;;2.78;100.00;99667.94;7393893;19;20402;-52
2022/11/17 09:54:45;;;;;;;13.50;8.23;;;;;;;2.85;100.00;99669.16;7400666;19;20414;-55
2022/11/17 09:57:22;;;;;;;15.60;8.57;;;;;;;2.73;100.00;99674.47;7395461;19;20422;-53
2022/11/17 09:59:56;;;;;;;15.13;8.33;;;;;;;2.93;100.00;99667.03;7393820;19;20767;-52
2022/11/17 10:02:26;;;;;;;15.90;8.60;;;;;;;2.83;100.00;99669.06;7391580;19;20431;-55
2022/11/17 10:04:58;;;;;;;14.50;8.47;;;;;;;2.84;100.00;99668.28;7395923;19;20416;-51
2022/11/17 10:07:28;;;;;;;12.60;7.90;;;;;;;2.82;100.00;99672.41;7393220;19;20416;-54
2022/11/17 10:09:58;;;;;;;20.93;9.23;;;;;;;2.89;100.00;99670.22;7393100;19;20431;-57
2022/11/17 10:12:34;;;;;;;12.23;7.67;;;;;;;2.96;100.00;99664.66;7392001;19;20441;-52
2022/11/17 10:15:21;;;;;;;16.07;8.70;;;;;;;3.05;100.00;99672.81;7395408;19;20955;-56
2022/11/17 10:17:52;;;;;;;16.80;8.97;;;;;;;3.03;100.00;99656.53;7392007;19;20411;-52
2022/11/17 10:20:24;;;;;;;15.70;8.80;;;;;;;3.00;100.00;99663.16;7394489;19;20419;-53
2022/11/17 10:22:55;;;;;;;21.63;10.20;;;;;;;3.02;100.00;99651.38;7393999;19;20404;-56
2022/11/17 10:25:38;;;;;;;14.07;7.70;;;;;;;3.01;100.00;99655.59;7393299;19;20392;-54
2022/11/17 10:28:09;;;;;;;15.20;9.10;;;;;;;3.15;100.00;99664.00;7397663;19;20475;-53
2022/11/17 10:30:38;;;;;;;14.47;8.40;;;;;;;3.05;100.00;99652.44;7392492;19;20417;-53
2022/11/17 10:33:08;;;;;;;16.07;9.90;;;;;;;3.09;100.00;99649.22;7394761;19;20375;-50
2022/11/17 10:35:41;;;;;;;13.40;7.40;;;;;;;3.12;100.00;99647.66;7394001;19;20438;-55
2022/11/17 10:38:19;;;;;;;22.93;9.63;;;;;;;3.12;100.00;99648.50;7394439;19;20374;-55
2022/11/17 10:40:50;;;;;;;14.83;9.07;;;;;;;3.20;100.00;99634.53;7391016;19;20411;-49
2022/11/17 10:43:25;;;;;;;15.57;8.90;;;;;;;3.17;100.00;99643.69;7393127;19;20924;-51
2022/11/17 10:45:56;;;;;;;16.47;8.73;;;;;;;3.17;100.00;99630.94;7385752;19;20418;-53
2022/11/17 10:48:28;;;;;;;21.10;9.50;;;;;;;3.20;100.00;99637.09;7393746;19;20398;-56
2022/11/17 10:51:02;;;;;;;15.90;8.90;;;;;;;3.18;100.00;99628.44;7391801;19;20406;-56
2022/11/17 10:53:37;;;;;;;12.40;7.67;;;;;;;3.16;100.00;99624.06;7396697;19;20406;-51
2022/11/17 10:56:17;;;;;;;18.60;9.47;;;;;;;3.18;100.00;99628.44;7392409;19;20407;-49
2022/11/17 10:58:59;;;;;;;16.47;9.37;;;;;;;3.04;100.00;99619.19;7392267;19;20447;-50
2022/11/17 11:01:30;;;;;;;14.47;8.83;;;;;;;3.15;100.00;99614.66;7387305;19;20446;-54
2022/11/17 11:04:00;;;;;;;19.40;9.43;;;;;;;3.20;100.00;99618.34;7391508;19;20375;-52
2022/11/17 11:06:33;;;;;;;25.43;13.80;;;;;;;3.53;100.00;99612.41;7390817;19;20407;-54
2022/11/17 11:09:06;;;;;;;18.87;10.50;;;;;;;3.63;100.00;99607.84;7391307;19;20437;-52
2022/11/17 11:11:46;;;;;;;31.13;16.53;;;;;;;3.60;100.00;99612.78;7389161;19;20419;-55
2022/11/17 11:14:26;;;;;;;19.60;10.23;;;;;;;3.44;100.00;99600.03;7393403;19;20379;-56
2022/11/17 11:16:56;;;;;;;19.20;11.17;;;;;;;3.22;100.00;99606.53;7390390;19;20415;-58
2022/11/17 11:19:26;;;;;;;19.30;10.93;;;;;;;3.04;100.00;99603.91;7390892;19;21101;-57
2022/11/17 11:22:11;;;;;;;31.93;16.00;;;;;;;3.09;100.00;99588.06;7389424;19;21008;-56
2022/11/17 11:24:53;;;;;;;20.53;11.67;;;;;;;2.93;100.00;99590.59;7394403;19;20789;-55
2022/11/17 11:27:32;;;;;;;15.90;9.00;;;;;;;2.91;100.00;99594.72;7391865;19;20442;-57
2022/11/17 11:30:05;;;;;;;18.40;9.60;;;;;;;2.86;100.00;99588.53;7391254;19;20446;-53
2022/11/17 11:32:42;;;;;;;22.33;9.90;;;;;;;2.86;100.00;99583.41;7393181;19;20443;-56
2022/11/17 11:35:35;;;;;;;26.03;12.67;;;;;;;2.88;100.00;99581.81;7391118;19;20406;-55
2022/11/17 11:38:16;;;;;;;14.77;9.63;;;;;;;2.84;100.00;99574.00;7396131;19;20992;-51
2022/11/17 11:40:56;;;;;;;17.73;9.93;;;;;;;2.86;100.00;99565.59;7389725;19;20402;-57
2022/11/17 11:43:33;;;;;;;13.60;7.50;;;;;;;2.84;100.00;99562.94;7391292;19;20753;-56
2022/11/17 11:46:10;;;;;;;16.60;8.70;;;;;;;2.79;100.00;99560.16;7390478;19;20407;-57
2022/11/17 11:48:42;;;;;;;21.93;10.77;;;;;;;2.79;100.00;99557.63;7391412;19;20426;-57
2022/11/17 11:51:16;;;;;;;18.03;9.60;;;;;;;2.78;100.00;99560.94;7389662;19;20955;-58
2022/11/17 11:53:52;;;;;;;19.63;11.17;;;;;;;2.78;100.00;99555.84;7394894;19;20383;-57
2022/11/17 11:56:24;;;;;;;18.10;10.40;;;;;;;2.78;100.00;99549.88;7389699;19;20407;-55
2022/11/17 11:58:58;;;;;;;37.57;18.47;;;;;;;3.24;100.00;99536.16;7390630;19;20439;-57
2022/11/17 12:01:28;;;;;;;59.30;28.90;;;;;;;3.91;100.00;99522.44;7389274;19;20518;-55
2022/11/17 12:04:09;;;;;;;25.17;13.30;;;;;;;3.38;100.00;99530.06;7390646;19;20395;-58
2022/11/17 12:06:44;;;;;;;23.63;12.37;;;;;;;3.22;100.00;99522.41;7391496;19;20844;-58
2022/11/17 12:09:46;;;;;;;16.43;8.80;;;;;;;3.06;100.00;99525.84;7389494;19;20449;-58
2022/11/17 12:12:17;;;;;;;30.43;15.30;;;;;;;3.09;100.00;99529.44;7388961;19;20407;-58